Terminal Aerodrome Forecast
Issued by NWS

Home | Current Version | Previous Version | Graphics & Text | Print | Product List | Glossary On
Versions: 1 2 3 4 5 6 7 8 9 10 11 12 13 14 15 16
000
FTUS43 KICT 311127
TAFCNU
TAF
KCNU 311127Z 3112/0112 36004KT P6SM BKN015 OVC035
     FM311600 02008KT P6SM OVC022
     FM312100 03008KT P6SM BKN030
     FM010000 05008KT P6SM SCT025
     FM010900 06005KT P6SM BKN025=

USA.gov is the U.S. government's official web portal to all federal, state and local government web resources and services.